Time;durP1;ratioP1;P1;durP2;ratioP2;P2;SDS_P1;SDS_P2;PMS_P1;PMS_P2;Temp;Humidity;BMP_temperature;BMP_pressure;BME280_temperature;BME280_humidity;BME280_pressure;Samples;Min_cycle;Max_cycle;Signal;HPM_P1;HPM_P2
2023/10/10 00:00:57;;;;;;;;;18.00;14.00;;;;;19.01;65.44;101783.41;6339274;22;45254;-72
2023/10/10 00:03:23;;;;;;;;;16.75;16.25;;;;;19.03;65.60;101792.34;6339441;22;46572;-72
2023/10/10 00:05:48;;;;;;;;;12.50;11.75;;;;;19.00;65.54;101784.38;6338721;22;45379;-73
2023/10/10 00:08:15;;;;;;;;;15.50;14.75;;;;;18.97;65.17;101782.69;6337994;22;45239;-73
2023/10/10 00:10:45;;;;;;;;;14.00;12.75;;;;;18.92;65.48;101776.66;6340036;22;45427;-73
2023/10/10 00:13:12;;;;;;;;;13.25;12.00;;;;;18.98;65.37;101791.72;6339313;22;46336;-72
2023/10/10 00:15:49;;;;;;;;;15.75;15.75;;;;;18.96;65.36;101790.88;6338007;22;45279;-72
2023/10/10 00:18:14;;;;;;;;;15.50;15.50;;;;;18.92;65.08;101786.59;6340039;22;45258;-73
2023/10/10 00:20:44;;;;;;;;;15.25;11.75;;;;;18.87;65.44;101784.97;6339752;22;45319;-73
2023/10/10 00:23:16;;;;;;;;;13.25;13.25;;;;;18.90;65.27;101796.63;6338616;22;45956;-72
2023/10/10 00:25:44;;;;;;;;;14.75;12.25;;;;;18.81;65.23;101782.59;6340327;22;45399;-73
2023/10/10 00:28:18;;;;;;;;;18.75;13.50;;;;;18.85;65.31;101789.59;6310878;22;45558;-73
2023/10/10 00:30:45;;;;;;;;;13.50;13.50;;;;;18.80;65.67;101788.94;6338880;22;45263;-73
2023/10/10 00:33:14;;;;;;;;;12.75;12.75;;;;;18.83;65.38;101796.06;6339005;22;45316;-73
2023/10/10 00:35:39;;;;;;;;;10.50;10.25;;;;;18.81;65.40;101796.09;6340184;22;45456;-73
2023/10/10 00:38:08;;;;;;;;;16.25;14.75;;;;;18.78;65.71;101798.09;6339013;22;45238;-73
2023/10/10 00:40:38;;;;;;;;;12.50;10.75;;;;;18.77;65.88;101797.19;6338741;22;45278;-73
2023/10/10 00:43:11;;;;;;;;;17.00;13.50;;;;;18.76;65.68;101791.84;6338455;22;46248;-73
2023/10/10 00:45:36;;;;;;;;;14.75;14.75;;;;;18.73;65.49;101798.31;6340045;22;45321;-73
2023/10/10 00:48:02;;;;;;;;;15.00;11.00;;;;;18.70;65.97;101796.63;6340207;22;45405;-73
2023/10/10 00:50:28;;;;;;;;;14.25;11.25;;;;;18.64;65.59;101788.84;6338893;22;45385;-73
2023/10/10 00:53:00;;;;;;;;;15.25;13.75;;;;;18.66;65.69;101799.56;6337906;22;47141;-73
2023/10/10 00:55:26;;;;;;;;;16.00;15.00;;;;;18.60;65.98;101795.34;6338893;22;45516;-73
2023/10/10 00:57:55;;;;;;;;;16.00;13.50;;;;;18.61;66.04;101791.69;6311224;22;45409;-73
2023/10/10 01:00:25;;;;;;;;;14.75;14.75;;;;;18.59;66.20;101795.41;6338335;22;45453;-73
2023/10/10 01:02:51;;;;;;;;;16.00;16.00;;;;;18.59;65.78;101792.72;6338873;22;45437;-73
2023/10/10 01:05:23;;;;;;;;;10.00;9.50;;;;;18.57;66.33;101789.22;6339324;22;45517;-73
2023/10/10 01:07:51;;;;;;;;;16.50;12.00;;;;;18.54;66.42;101783.94;6338753;22;45250;-73
2023/10/10 01:10:16;;;;;;;;;15.50;15.50;;;;;18.50;66.08;101778.69;6338256;22;45578;-73
2023/10/10 01:12:44;;;;;;;;;15.00;12.50;;;;;18.49;66.29;101776.06;6337331;22;47043;-73
2023/10/10 01:15:25;;;;;;;;;14.75;13.50;;;;;18.46;66.25;101768.09;6339563;22;45472;-73
2023/10/10 01:17:51;;;;;;;;;13.50;13.50;;;;;18.49;66.47;101773.34;6340058;22;45333;-73
2023/10/10 01:20:34;;;;;;;;;14.25;14.00;;;;;18.47;66.51;101778.84;6338616;22;45597;-73
2023/10/10 01:23:01;;;;;;;;;14.75;14.25;;;;;18.44;66.19;101764.59;6339852;22;45528;-73
2023/10/10 01:28:01;;;;;;;;;14.25;14.25;;;;;18.40;66.34;101765.72;6339352;22;45346;-73
2023/10/10 01:33:22;;;;;;;;;16.25;15.00;;;;;18.41;66.12;101760.22;6339237;22;45328;-73
2023/10/10 01:35:49;;;;;;;;;16.25;12.25;;;;;18.40;66.52;101761.16;6338404;22;45494;-73
2023/10/10 01:38:35;;;;;;;;;13.00;12.00;;;;;18.43;66.44;101765.56;6338065;22;45468;-73
2023/10/10 01:41:22;;;;;;;;;12.25;12.25;;;;;18.39;66.13;101754.00;6339477;22;45434;-73
2023/10/10 01:43:53;;;;;;;;;16.25;16.25;;;;;18.39;66.10;101770.22;6336733;22;46107;-73
2023/10/10 01:46:28;;;;;;;;;15.50;13.00;;;;;18.39;66.29;101759.41;6337237;22;45292;-73
2023/10/10 01:48:54;;;;;;;;;12.00;12.00;;;;;18.38;66.31;101754.97;6339295;22;45424;-73
2023/10/10 01:51:19;;;;;;;;;14.00;11.50;;;;;18.37;66.25;101763.16;6338514;22;45233;-73
2023/10/10 01:53:45;;;;;;;;;13.00;12.50;;;;;18.34;66.52;101758.75;6339225;22;45305;-73
2023/10/10 01:56:13;;;;;;;;;15.50;12.50;;;;;18.30;66.57;101749.06;6339684;22;45270;-72
2023/10/10 01:58:40;;;;;;;;;12.00;11.50;;;;;18.35;66.68;101751.53;6339461;22;45840;-73
2023/10/10 02:01:13;;;;;;;;;13.50;12.50;;;;;18.34;66.63;101745.25;6311368;22;45756;-73
2023/10/10 02:03:40;;;;;;;;;15.00;12.50;;;;;18.28;66.27;101742.88;6340635;22;45204;-73
2023/10/10 02:06:08;;;;;;;;;13.00;10.00;;;;;18.26;66.28;101745.63;6341167;22;45566;-73
2023/10/10 02:08:35;;;;;;;;;17.25;13.25;;;;;18.29;66.32;101750.91;6340382;22;45332;-73
2023/10/10 02:11:02;;;;;;;;;15.25;15.25;;;;;18.22;66.58;101740.44;6340214;22;45272;-73
2023/10/10 02:13:33;;;;;;;;;14.00;12.75;;;;;18.26;66.05;101747.44;6339859;22;46141;-73
2023/10/10 02:15:59;;;;;;;;;13.75;11.00;;;;;18.25;66.68;101751.97;6340013;22;45706;-73
2023/10/10 02:18:37;;;;;;;;;14.00;14.00;;;;;18.24;66.45;101746.66;6312691;22;45255;-73
2023/10/10 02:21:08;;;;;;;;;12.75;12.00;;;;;18.18;66.84;101736.16;6340066;22;45284;-73
2023/10/10 02:23:34;;;;;;;;;15.75;14.00;;;;;18.20;66.58;101739.66;6338381;22;45339;-73
2023/10/10 02:26:07;;;;;;;;;12.50;11.75;;;;;18.21;66.57;101750.41;6337888;22;45295;-73
2023/10/10 02:28:48;;;;;;;;;14.25;13.50;;;;;18.18;66.53;101739.72;6339069;22;45353;-73
2023/10/10 02:31:19;;;;;;;;;16.75;14.00;;;;;18.15;66.47;101739.88;6340042;22;45220;-73
2023/10/10 02:33:48;;;;;;;;;12.50;12.00;;;;;18.15;66.35;101737.16;6339620;22;46142;-73
2023/10/10 02:36:16;;;;;;;;;14.75;14.00;;;;;18.15;66.63;101743.44;6340273;22;45435;-73
2023/10/10 02:38:53;;;;;;;;;13.25;13.25;;;;;18.11;66.56;101735.59;6340356;22;45357;-73
2023/10/10 02:41:27;;;;;;;;;13.50;12.25;;;;;18.11;66.45;101735.59;6339641;22;45318;-73
2023/10/10 02:46:33;;;;;;;;;14.75;13.75;;;;;18.04;66.76;101732.28;6340297;22;45420;-73
2023/10/10 02:49:02;;;;;;;;;11.25;10.75;;;;;18.07;66.61;101737.53;6339750;22;45242;-73
2023/10/10 02:51:27;;;;;;;;;14.75;12.75;;;;;18.04;67.09;101735.00;6338925;22;45247;-73
2023/10/10 02:53:53;;;;;;;;;14.25;12.50;;;;;18.02;67.19;101730.59;6340442;22;45333;-73
2023/10/10 02:56:19;;;;;;;;;12.50;11.50;;;;;17.97;66.70;101725.41;6339384;22;45254;-73
2023/10/10 02:58:48;;;;;;;;;14.25;13.25;;;;;17.97;67.16;101725.41;6340009;22;45185;-73
2023/10/10 03:01:50;;;;;;;;;15.50;13.75;;;;;17.98;66.97;101737.13;6339661;22;45265;-73
2023/10/10 03:04:08;;;;;;;;;13.75;12.50;;;;;17.91;67.46;101728.44;6338417;22;45202;-73
2023/10/10 03:06:33;;;;;;;;;14.75;14.75;;;;;17.94;67.24;101736.34;6339737;22;45234;-73
2023/10/10 03:11:53;;;;;;;;;14.75;14.25;;;;;17.74;67.09;101696.75;6340082;22;45196;-73
2023/10/10 03:14:27;;;;;;;;;14.25;11.50;;;;;17.90;67.16;101727.53;6338468;22;47034;-73
2023/10/10 03:17:06;;;;;;;;;15.50;13.50;;;;;17.89;67.58;101723.09;6339604;22;45617;-73
2023/10/10 03:19:39;;;;;;;;;15.25;12.75;;;;;17.88;67.06;101729.44;6339570;22;45420;-73
2023/10/10 03:25:23;;;;;;;;;13.75;12.00;;;;;17.86;67.33;101727.72;6242711;22;45615;-73
2023/10/10 03:27:53;;;;;;;;;12.25;11.00;;;;;17.83;67.40;101725.19;6331173;22;45279;-73
2023/10/10 03:30:34;;;;;;;;;13.75;13.25;;;;;17.78;67.58;101718.16;6339027;22;45185;-73
2023/10/10 03:33:08;;;;;;;;;14.25;13.00;;;;;17.81;67.46;101725.25;6340064;22;45335;-73
2023/10/10 03:35:51;;;;;;;;;16.00;13.75;;;;;17.73;67.84;101725.59;6340498;22;46137;-73
2023/10/10 03:41:26;;;;;;;;;18.00;15.75;;;;;17.74;67.60;101721.06;6339697;22;45489;-73
2023/10/10 05:25:31;;;;;;;;;17.50;15.75;;;;;17.19;68.87;101700.19;6262059;22;45838;-73
2023/10/10 05:27:58;;;;;;;;;16.25;14.50;;;;;17.19;68.59;101700.19;6305993;22;45764;-73
2023/10/10 05:30:24;;;;;;;;;16.25;14.75;;;;;17.17;68.58;101697.59;6305360;22;45207;-73
2023/10/10 05:33:04;;;;;;;;;18.00;14.75;;;;;17.13;68.56;101689.69;6308016;22;45512;-73
2023/10/10 05:35:32;;;;;;;;;15.00;14.00;;;;;17.08;68.60;101676.41;6279670;22;48110;-73
2023/10/10 05:38:02;;;;;;;;;13.25;13.25;;;;;17.15;68.69;101696.75;6278869;22;45394;-73
2023/10/10 05:40:28;;;;;;;;;14.50;13.25;;;;;17.13;68.53;101693.25;6307342;22;45287;-73
2023/10/10 05:42:57;;;;;;;;;15.25;15.00;;;;;17.09;68.97;101677.25;6307038;22;45457;-73
2023/10/10 05:45:22;;;;;;;;;14.25;14.00;;;;;17.06;69.15;101678.28;6306653;22;47494;-73
2023/10/10 05:47:47;;;;;;;;;12.25;12.25;;;;;17.09;68.71;101680.84;6308343;22;45319;-73
2023/10/10 05:50:14;;;;;;;;;17.00;14.00;;;;;17.09;69.34;101677.25;6307639;22;45338;-73
2023/10/10 05:52:40;;;;;;;;;13.50;13.50;;;;;17.11;68.98;101687.06;6279815;22;45472;-73
2023/10/10 05:55:06;;;;;;;;;14.00;12.25;;;;;17.11;69.34;101692.44;6305693;22;46125;-74
2023/10/10 05:57:36;;;;;;;;;16.25;14.75;;;;;17.09;69.21;101688.06;6323358;22;45595;-73
2023/10/10 06:00:04;;;;;;;;;12.00;11.50;;;;;17.06;69.12;101686.38;6333882;22;45348;-73
2023/10/10 06:02:30;;;;;;;;;13.50;12.75;;;;;17.02;69.27;101680.25;6337494;22;45329;-73
2023/10/10 06:04:55;;;;;;;;;14.75;12.50;;;;;17.04;69.03;101689.16;6337798;22;45419;-73
2023/10/10 06:07:20;;;;;;;;;15.75;13.50;;;;;17.02;69.02;101691.03;6338081;22;45289;-73
2023/10/10 06:09:51;;;;;;;;;14.75;12.50;;;;;17.04;69.14;101694.53;6338722;22;45262;-73
2023/10/10 06:12:17;;;;;;;;;15.50;15.50;;;;;17.04;69.49;101694.53;6338368;22;46104;-73
2023/10/10 06:14:42;;;;;;;;;18.75;15.25;;;;;17.01;69.25;101691.97;6338323;22;45326;-73
2023/10/10 06:17:08;;;;;;;;;18.75;15.75;;;;;17.04;69.35;101699.06;6308716;22;65371;-73
2023/10/10 06:19:34;;;;;;;;;17.75;15.00;;;;;17.01;69.42;101696.50;6338011;22;45383;-73
2023/10/10 06:22:02;;;;;;;;;13.00;12.50;;;;;17.05;69.53;101703.50;6308090;22;45445;-73
2023/10/10 06:24:28;;;;;;;;;16.75;15.75;;;;;17.00;69.83;101697.44;6336307;22;45530;-74
2023/10/10 06:27:00;;;;;;;;;13.50;13.50;;;;;17.01;69.75;101699.19;6338680;22;45262;-72
2023/10/10 06:29:29;;;;;;;;;13.75;13.50;;;;;16.98;69.75;101705.59;6307102;22;45567;-73
2023/10/10 06:31:56;;;;;;;;;15.25;15.25;;;;;16.98;70.28;101697.50;6333474;22;45525;-72
2023/10/10 06:34:29;;;;;;;;;18.75;16.00;;;;;17.01;69.94;101697.38;6332266;22;45817;-74
2023/10/10 06:36:54;;;;;;;;;24.00;18.25;;;;;16.93;70.29;101694.13;6336941;22;45500;-74
2023/10/10 06:39:21;;;;;;;;;20.50;19.00;;;;;16.97;70.49;101701.16;6337754;22;45248;-75
2023/10/10 06:41:50;;;;;;;;;20.00;15.50;;;;;17.02;70.56;101703.63;6339539;22;45354;-74
2023/10/10 06:44:39;;;;;;;;;15.25;12.75;;;;;17.02;70.46;101701.84;6338019;22;45375;-74
2023/10/10 06:47:08;;;;;;;;;18.75;17.00;;;;;16.99;70.69;101691.19;6335020;22;45251;-74
2023/10/10 06:49:43;;;;;;;;;19.25;16.00;;;;;17.03;70.75;101700.88;6336585;22;45387;-74
2023/10/10 06:52:18;;;;;;;;;18.50;17.50;;;;;17.07;71.34;101703.44;6308706;22;45386;-74
2023/10/10 06:54:45;;;;;;;;;19.50;18.75;;;;;17.02;71.17;101693.75;6336181;22;46083;-74
2023/10/10 06:57:17;;;;;;;;;25.50;19.75;;;;;17.07;71.31;101698.03;6337398;22;45766;-74
2023/10/10 06:59:42;;;;;;;;;21.00;19.50;;;;;17.12;71.52;101698.72;6337365;22;45325;-74
2023/10/10 07:02:20;;;;;;;;;19.25;18.25;;;;;17.15;71.42;101709.38;6336269;22;45369;-75
2023/10/10 07:04:55;;;;;;;;;23.00;19.25;;;;;17.12;71.76;101694.19;6335554;22;46168;-75
2023/10/10 07:07:20;;;;;;;;;23.00;20.75;;;;;17.14;71.56;101694.13;6335768;22;45374;-77
2023/10/10 07:09:46;;;;;;;;;27.75;23.50;;;;;17.23;71.58;101707.22;6280762;22;45902;-74
2023/10/10 07:12:13;;;;;;;;;22.50;22.50;;;;;17.17;72.22;101691.28;6339703;22;45172;-73
2023/10/10 07:14:47;;;;;;;;;23.25;20.00;;;;;17.29;72.18;101698.84;6329927;22;45697;-73
2023/10/10 07:17:13;;;;;;;;;22.75;22.75;;;;;17.32;72.41;101706.78;6333259;22;45794;-73
2023/10/10 07:21:04;;;;;;;;;24.50;22.25;;;;;17.34;71.98;101701.31;6335059;22;45464;-73
2023/10/10 07:22:41;;;;;;;;;27.50;23.50;;;;;17.40;71.63;101701.91;6336889;22;45369;-73
2023/10/10 07:25:24;;;;;;;;;25.25;24.50;;;;;17.34;71.82;101686.03;6335182;22;45472;-73
2023/10/10 07:27:50;;;;;;;;;26.25;23.50;;;;;17.47;71.98;101696.25;6335216;22;45430;-73
2023/10/10 07:32:42;;;;;;;;;26.25;22.50;;;;;17.53;71.70;101695.97;6329824;22;45833;-73
2023/10/10 07:35:14;;;;;;;;;24.50;21.75;;;;;17.57;71.02;101702.97;6329510;22;45970;-73
2023/10/10 07:37:41;;;;;;;;;24.00;22.00;;;;;17.56;71.20;101691.28;6336249;22;45732;-73
2023/10/10 07:40:30;;;;;;;;;18.25;16.75;;;;;17.64;71.06;101701.75;6336764;22;45660;-73
2023/10/10 07:43:01;;;;;;;;;22.75;21.00;;;;;17.70;71.51;101705.97;6307907;22;45747;-73
2023/10/10 07:45:33;;;;;;;;;29.00;24.00;;;;;17.67;71.12;101701.56;6335967;22;45322;-73
2023/10/10 07:50:34;;;;;;;;;21.50;20.25;;;;;17.84;71.58;101717.00;6334819;22;45363;-73
2023/10/10 07:53:03;;;;;;;;;25.75;23.25;;;;;17.84;71.44;101713.41;6336959;22;45393;-73
2023/10/10 07:55:33;;;;;;;;;25.25;23.25;;;;;17.85;71.19;101704.38;6336585;22;45452;-73
2023/10/10 07:58:01;;;;;;;;;23.50;22.25;;;;;17.91;71.30;101717.63;6334822;22;45621;-73
2023/10/10 08:00:37;;;;;;;;;21.25;20.00;;;;;17.89;71.48;101715.00;6335235;22;45736;-73
2023/10/10 08:03:04;;;;;;;;;25.75;23.75;;;;;17.83;71.55;101711.69;6337280;22;45298;-73
2023/10/10 08:05:29;;;;;;;;;26.00;23.25;;;;;17.98;70.98;101731.72;6335366;22;45294;-73
2023/10/10 08:07:57;;;;;;;;;18.75;18.00;;;;;17.94;70.83;101717.44;6335237;22;45323;-73
2023/10/10 08:10:38;;;;;;;;;26.25;25.00;;;;;18.06;71.01;101733.09;6308314;22;45593;-73
2023/10/10 08:13:10;;;;;;;;;20.75;18.25;;;;;18.11;70.65;101725.63;6309173;22;45534;-73
2023/10/10 08:15:51;;;;;;;;;26.75;23.25;;;;;18.15;71.12;101729.94;6337347;22;46211;-73
2023/10/10 08:23:30;;;;;;;;;26.00;22.00;;;;;18.15;69.83;101719.13;6333766;22;45678;-73
2023/10/10 08:25:56;;;;;;;;;26.75;23.25;;;;;18.20;69.83;101720.75;6306980;22;47682;-73
2023/10/10 08:28:22;;;;;;;;;27.25;25.75;;;;;18.22;69.60;101722.41;6337625;22;45310;-73
2023/10/10 08:30:52;;;;;;;;;23.75;20.00;;;;;18.30;71.21;101731.00;6338140;22;45498;-73
2023/10/10 08:33:18;;;;;;;;;23.50;23.00;;;;;18.37;71.02;101736.13;6333921;22;45346;-73
2023/10/10 08:35:43;;;;;;;;;22.50;20.75;;;;;18.28;70.07;101715.84;6308150;22;48000;-73
2023/10/10 08:38:19;;;;;;;;;25.75;22.00;;;;;18.29;70.04;101706.75;6333647;22;45533;-73
2023/10/10 08:40:57;;;;;;;;;22.00;19.75;;;;;18.40;70.12;101717.91;6335760;22;45315;-73
2023/10/10 08:43:28;;;;;;;;;23.25;19.25;;;;;18.40;69.69;101708.94;6333016;22;45636;-73
2023/10/10 08:45:56;;;;;;;;;24.25;22.00;;;;;18.38;69.74;101706.31;6336491;22;46351;-73
2023/10/10 08:48:26;;;;;;;;;27.00;22.50;;;;;18.44;69.61;101700.63;6308155;22;45339;-73
2023/10/10 08:50:55;;;;;;;;;30.50;24.50;;;;;18.47;69.91;101708.53;6307759;22;45335;-73
2023/10/10 08:53:21;;;;;;;;;31.75;28.75;;;;;18.51;70.04;101715.56;6334581;22;45713;-73
2023/10/10 08:55:56;;;;;;;;;25.50;23.50;;;;;18.55;69.98;101715.41;6333376;22;45326;-73
2023/10/10 08:58:22;;;;;;;;;29.25;24.75;;;;;18.58;69.95;101718.84;6334714;22;45620;-73
2023/10/10 09:00:48;;;;;;;;;31.75;25.50;;;;;18.63;70.10;101721.31;6335065;22;45647;-73
2023/10/10 09:03:13;;;;;;;;;29.75;23.50;;;;;18.66;70.05;101718.44;6332671;22;45440;-73
2023/10/10 09:05:39;;;;;;;;;28.75;26.00;;;;;18.62;70.01;101703.31;6335370;22;46544;-73
2023/10/10 09:08:17;;;;;;;;;28.50;26.25;;;;;18.70;70.47;101709.22;6334837;22;45651;-73
2023/10/10 09:10:43;;;;;;;;;29.75;26.25;;;;;18.79;70.07;101716.84;6336843;22;45499;-73
2023/10/10 09:13:09;;;;;;;;;32.50;26.75;;;;;18.83;69.84;101721.19;6337876;22;45347;-73
2023/10/10 09:15:35;;;;;;;;;27.75;24.75;;;;;18.84;69.84;101708.53;6332141;22;46428;-73
2023/10/10 09:18:17;;;;;;;;;25.50;23.25;;;;;18.88;70.11;101711.00;6337462;22;45262;-73
2023/10/10 09:20:47;;;;;;;;;23.25;21.00;;;;;19.02;70.71;101722.94;6307047;22;45357;-73
2023/10/10 09:23:26;;;;;;;;;24.50;17.75;;;;;19.03;70.57;101713.88;6308686;22;45593;-73
2023/10/10 09:26:09;;;;;;;;;23.50;21.50;;;;;19.01;69.63;101697.72;6333646;22;45641;-73
2023/10/10 09:28:49;;;;;;;;;19.50;18.25;;;;;19.17;69.56;101715.84;6309787;22;45629;-73
2023/10/10 09:31:31;;;;;;;;;20.00;17.00;;;;;19.17;69.77;101703.19;6333817;22;45488;-73
2023/10/10 09:34:03;;;;;;;;;16.00;14.75;;;;;19.25;69.85;101714.47;6336268;22;45356;-73
2023/10/10 09:36:28;;;;;;;;;20.00;14.75;;;;;19.20;69.40;101689.47;6338685;22;46034;-73
2023/10/10 09:38:57;;;;;;;;;17.75;17.50;;;;;19.36;69.03;101704.88;6308229;22;45510;-73
2023/10/10 09:49:51;;;;;;;;;14.75;12.25;;;;;19.56;68.20;101698.38;6333616;22;45760;-73
2023/10/10 09:55:34;;;;;;;;;16.25;12.50;;;;;19.61;68.70;101690.88;6333779;22;45609;-73
2023/10/10 10:00:45;;;;;;;;;12.25;11.00;;;;;19.74;68.18;101696.50;6304022;22;45628;-72
2023/10/10 10:03:49;;;;;;;;;11.50;10.50;;;;;19.77;68.43;101689.09;6305027;22;45331;-72
2023/10/10 10:07:01;;;;;;;;;13.25;11.00;;;;;19.89;68.43;101697.50;6305353;22;45248;-72
2023/10/10 10:09:45;;;;;;;;;15.00;12.75;;;;;19.92;68.71;101691.94;6178427;23;46046;-72
2023/10/10 10:12:33;;;;;;;;;10.00;10.00;;;;;19.97;67.89;101696.09;6177049;23;45627;-72
2023/10/10 10:15:15;;;;;;;;;12.50;10.50;;;;;20.03;68.16;101702.13;6278644;22;45374;-72
2023/10/10 10:17:48;;;;;;;;;12.00;11.75;;;;;20.11;68.05;101694.44;6306768;22;45204;-73
2023/10/10 10:20:34;;;;;;;;;14.75;12.50;;;;;20.10;67.33;101680.03;6307592;22;45404;-73
2023/10/10 10:23:00;;;;;;;;;12.50;11.50;;;;;20.21;67.57;101690.25;6307432;22;45539;-72
2023/10/10 10:25:31;;;;;;;;;10.00;10.00;;;;;20.20;67.74;101677.66;6278268;22;45326;-72
2023/10/10 10:28:10;;;;;;;;;11.50;9.25;;;;;20.24;67.70;101681.06;6253748;22;45663;-72
2023/10/10 10:30:50;;;;;;;;;12.25;9.75;;;;;20.46;66.81;101694.22;6307302;22;45932;-72
2023/10/10 10:33:19;;;;;;;;;11.50;11.00;;;;;20.51;66.66;101694.84;6306010;22;45604;-73
2023/10/10 10:35:48;;;;;;;;;14.25;10.00;;;;;20.58;66.76;101696.25;6307839;22;45298;-73
2023/10/10 10:38:17;;;;;;;;;10.00;9.00;;;;;20.59;65.99;101689.81;6309118;22;45263;-74
2023/10/10 10:40:47;;;;;;;;;9.75;9.00;;;;;20.58;65.95;101670.94;6307459;22;45604;-74
2023/10/10 10:43:20;;;;;;;;;14.25;10.00;;;;;20.69;66.00;101685.63;6302588;22;45643;-70
2023/10/10 10:45:51;;;;;;;;;12.75;10.75;;;;;20.71;66.13;101670.16;6302074;22;45558;-72
2023/10/10 10:48:33;;;;;;;;;10.00;10.00;;;;;20.85;66.66;101674.72;6302707;22;45681;-73
2023/10/10 10:51:22;;;;;;;;;10.25;10.25;;;;;21.01;66.21;101671.06;6302646;22;46544;-73
2023/10/10 10:53:50;;;;;;;;;7.50;7.25;;;;;21.13;66.00;101672.16;6303244;22;45414;-73
2023/10/10 10:59:35;;;;;;;;;8.00;8.00;;;;;21.33;66.28;101670.91;6302367;22;45368;-70
2023/10/10 11:01:42;;;;;;;;;11.75;9.00;;;;;21.45;65.29;101653.81;6289951;22;45554;-72
2023/10/10 11:04:14;;;;;;;;;9.25;7.75;;;;;21.55;64.64;101654.13;6302671;22;45396;-75
2023/10/10 11:06:50;;;;;;;;;6.50;6.50;;;;;21.62;63.69;101653.66;6275477;22;45700;-72
2023/10/10 11:09:25;;;;;;;;;9.50;9.00;;;;;21.67;64.41;101653.38;6303250;22;45682;-73
2023/10/10 11:11:57;;;;;;;;;10.50;9.75;;;;;21.67;63.79;101639.78;6303154;22;45378;-72
2023/10/10 11:14:23;;;;;;;;;15.50;13.75;;;;;21.70;63.62;101634.16;6301500;22;45410;-73
2023/10/10 11:16:56;;;;;;;;;9.75;8.75;;;;;21.82;62.81;101643.34;6303172;22;45608;-73
2023/10/10 11:22:00;;;;;;;;;12.00;8.75;;;;;21.94;63.17;101641.66;6303005;22;45483;-71
2023/10/10 11:24:29;;;;;;;;;8.75;7.00;;;;;22.05;62.44;101644.50;6302551;22;45582;-77
2023/10/10 11:32:48;;;;;;;;;12.00;9.50;;;;;22.23;61.50;101641.56;6302163;22;45549;-70
2023/10/10 11:35:25;;;;;;;;;10.50;9.00;;;;;22.30;61.21;101632.03;6302250;22;45399;-70
2023/10/10 11:38:06;;;;;;;;;8.00;8.00;;;;;22.38;60.96;101633.25;6303201;22;45435;-70
2023/10/10 11:40:32;;;;;;;;;7.00;7.00;;;;;22.48;61.23;101624.47;6301700;22;45656;-70
2023/10/10 11:43:06;;;;;;;;;8.75;8.25;;;;;22.56;60.53;101620.22;6274461;22;45558;-70
2023/10/10 11:45:39;;;;;;;;;7.25;6.75;;;;;22.64;60.38;101616.13;6302571;22;45620;-70
2023/10/10 11:48:12;;;;;;;;;5.75;5.75;;;;;22.70;59.63;101604.78;6302737;22;45669;-70
2023/10/10 11:50:56;;;;;;;;;6.25;5.25;;;;;22.79;59.42;101608.72;6302742;22;45415;-71
2023/10/10 11:53:30;;;;;;;;;9.25;7.50;;;;;22.86;59.50;101607.31;6301142;22;45859;-72
2023/10/10 11:56:01;;;;;;;;;9.50;8.75;;;;;22.92;58.53;101594.16;6306315;22;45603;-70
2023/10/10 11:58:38;;;;;;;;;7.75;6.50;;;;;23.04;58.54;101578.78;6336926;22;45584;-70
2023/10/10 12:01:09;;;;;;;;;8.50;7.00;;;;;23.24;58.31;101587.41;6338900;22;45564;-70
2023/10/10 12:06:14;;;;;;;;;10.25;9.75;;;;;23.38;56.83;101579.06;6333043;22;45738;-70
2023/10/10 12:08:50;;;;;;;;;11.00;8.00;;;;;23.44;56.54;101572.31;6309440;22;45450;-70
2023/10/10 12:11:20;;;;;;;;;9.00;8.75;;;;;23.56;55.43;101573.28;6338820;22;45247;-70
2023/10/10 12:13:46;;;;;;;;;7.75;7.00;;;;;23.60;54.75;101567.44;6338771;22;45561;-70
2023/10/10 12:16:11;;;;;;;;;8.50;5.25;;;;;23.63;55.69;101567.22;6338879;22;45180;-70
2023/10/10 12:18:45;;;;;;;;;5.50;5.50;;;;;23.68;55.27;101556.84;6337264;22;45149;-70
2023/10/10 12:21:19;;;;;;;;;8.00;7.50;;;;;23.73;54.77;101555.66;6328683;22;45465;-71
2023/10/10 12:23:47;;;;;;;;;11.25;8.75;;;;;23.86;54.70;101559.22;6334683;22;45954;-70
2023/10/10 12:26:12;;;;;;;;;7.25;6.25;;;;;23.91;53.67;101554.28;6333696;22;45485;-70
2023/10/10 12:28:38;;;;;;;;;8.00;8.00;;;;;23.91;53.46;101548.84;6335100;22;45393;-70
2023/10/10 12:31:04;;;;;;;;;7.25;7.25;;;;;23.92;52.83;101550.56;6334515;22;45819;-70
2023/10/10 12:33:31;;;;;;;;;9.00;8.00;;;;;23.91;53.51;101542.53;6334445;22;46807;-70
2023/10/10 12:35:56;;;;;;;;;8.00;7.75;;;;;23.86;53.07;101521.06;6331882;22;45705;-70
2023/10/10 12:38:23;;;;;;;;;9.50;8.25;;;;;24.10;53.69;101541.97;6331098;22;45999;-70
2023/10/10 12:40:53;;;;;;;;;8.25;7.00;;;;;24.16;52.12;101527.88;6332219;22;45662;-70
2023/10/10 12:43:20;;;;;;;;;8.50;7.75;;;;;24.21;52.69;101525.66;6333746;22;46189;-70
2023/10/10 12:45:51;;;;;;;;;12.00;9.75;;;;;24.29;52.41;101531.38;6333238;22;45594;-70
2023/10/10 12:48:20;;;;;;;;;8.75;6.25;;;;;24.37;51.21;101528.94;6333852;22;45515;-70
2023/10/10 12:50:50;;;;;;;;;9.25;8.75;;;;;24.43;50.54;101519.38;6332907;22;45794;-70
2023/10/10 12:53:19;;;;;;;;;10.50;9.00;;;;;24.57;50.14;101529.22;6332174;22;45557;-70
2023/10/10 12:55:49;;;;;;;;;10.00;8.75;;;;;24.65;50.15;101512.25;6333118;22;45520;-70
2023/10/10 12:58:16;;;;;;;;;9.00;9.00;;;;;24.74;49.50;101526.03;6331818;22;45456;-70
2023/10/10 13:00:51;;;;;;;;;8.50;7.25;;;;;24.71;48.98;101509.88;6332980;22;45463;-70
2023/10/10 13:03:23;;;;;;;;;8.00;6.75;;;;;24.75;47.58;101505.06;6333429;22;46227;-70
2023/10/10 13:05:52;;;;;;;;;10.50;8.25;;;;;24.81;48.06;101520.94;6333487;22;45699;-69
2023/10/10 13:08:20;;;;;;;;;7.50;6.00;;;;;24.76;47.40;101496.75;6335084;22;45676;-69
2023/10/10 13:10:45;;;;;;;;;6.00;5.00;;;;;24.86;46.98;101507.78;6333929;22;45665;-70
2023/10/10 13:13:15;;;;;;;;;8.00;6.25;;;;;24.86;46.47;101509.63;6335066;22;45358;-69
2023/10/10 13:15:47;;;;;;;;;6.75;6.75;;;;;24.89;46.38;101513.00;6333967;22;45537;-70
2023/10/10 13:18:19;;;;;;;;;11.00;6.25;;;;;24.89;46.31;101506.66;6333969;22;45729;-70
2023/10/10 13:20:50;;;;;;;;;6.75;5.25;;;;;24.75;46.56;101472.28;6332302;22;45355;-71
2023/10/10 13:23:15;;;;;;;;;6.50;6.50;;;;;25.00;45.50;101498.47;6338201;22;47185;-70
2023/10/10 13:25:41;;;;;;;;;9.50;7.25;;;;;25.01;46.35;101499.31;6339052;22;45737;-70
2023/10/10 13:28:09;;;;;;;;;8.25;7.25;;;;;25.02;46.08;101491.00;6338304;22;49621;-70
2023/10/10 13:30:38;;;;;;;;;7.75;7.25;;;;;25.06;46.39;101491.63;6338872;22;45448;-70
2023/10/10 13:33:06;;;;;;;;;6.50;6.50;;;;;25.12;45.72;101493.84;6337815;22;45521;-70
2023/10/10 13:35:36;;;;;;;;;10.00;7.25;;;;;25.19;45.66;101486.88;6338750;22;45479;-70
2023/10/10 13:38:02;;;;;;;;;8.75;8.75;;;;;25.24;45.72;101489.25;6334624;22;45648;-70
2023/10/10 13:40:27;;;;;;;;;8.75;7.00;;;;;25.26;45.41;101485.44;6338651;22;45393;-70
2023/10/10 13:42:52;;;;;;;;;6.00;6.00;;;;;25.29;45.27;101484.28;6338153;22;61064;-70
2023/10/10 13:45:19;;;;;;;;;9.25;7.50;;;;;25.29;45.05;101485.19;6337868;22;45369;-70
2023/10/10 13:47:48;;;;;;;;;6.00;6.00;;;;;25.27;44.43;101478.94;6339134;22;45334;-70
2023/10/10 13:51:04;;;;;;;;;7.00;6.00;;;;;25.31;44.69;101487.78;6340147;22;45238;-70
2023/10/10 13:53:00;;;;;;;;;12.25;9.25;;;;;25.32;45.07;101482.16;6315684;22;46020;-70
2023/10/10 13:55:29;;;;;;;;;11.25;7.00;;;;;25.28;43.71;101477.97;6338584;22;46161;-70
2023/10/10 13:57:55;;;;;;;;;6.75;4.75;;;;;25.24;44.66;101472.84;6338135;22;45314;-70
2023/10/10 14:00:29;;;;;;;;;6.25;6.00;;;;;25.32;43.78;101492.25;6311568;22;45764;-70
2023/10/10 14:03:05;;;;;;;;;7.25;6.75;;;;;25.37;43.65;101486.41;6340072;22;45811;-70
2023/10/10 14:05:35;;;;;;;;;9.00;9.00;;;;;25.23;43.52;101462.94;6338849;22;45801;-70